sensor_id;sensor_type;location;lat;lon;timestamp;P1;durP1;ratioP1;P2;durP2;ratioP2
52940;SDS011;62001;53.366;6.636;2023-02-28T00:00:22;9.97;;;2.63;;
52940;SDS011;62001;53.366;6.636;2023-02-28T00:02:48;9.80;;;2.30;;
52940;SDS011;62001;53.366;6.636;2023-02-28T00:05:15;12.60;;;2.80;;
52940;SDS011;62001;53.366;6.636;2023-02-28T00:07:42;12.40;;;2.90;;
52940;SDS011;62001;53.366;6.636;2023-02-28T00:10:12;13.20;;;2.43;;
52940;SDS011;62001;53.366;6.636;2023-02-28T00:12:41;14.00;;;2.40;;
52940;SDS011;62001;53.366;6.636;2023-02-28T00:15:08;13.73;;;2.90;;
52940;SDS011;62001;53.366;6.636;2023-02-28T00:17:36;9.37;;;2.00;;
52940;SDS011;62001;53.366;6.636;2023-02-28T00:20:03;11.70;;;2.37;;
52940;SDS011;62001;53.366;6.636;2023-02-28T00:22:33;11.45;;;2.40;;
52940;SDS011;62001;53.366;6.636;2023-02-28T00:24:59;10.70;;;2.63;;
52940;SDS011;62001;53.366;6.636;2023-02-28T00:27:25;13.10;;;2.40;;
52940;SDS011;62001;53.366;6.636;2023-02-28T00:29:51;11.23;;;2.23;;
52940;SDS011;62001;53.366;6.636;2023-02-28T00:32:19;11.00;;;2.30;;
52940;SDS011;62001;53.366;6.636;2023-02-28T00:34:45;12.27;;;2.60;;
52940;SDS011;62001;53.366;6.636;2023-02-28T00:37:11;12.17;;;2.43;;
52940;SDS011;62001;53.366;6.636;2023-02-28T00:39:37;14.67;;;2.40;;
52940;SDS011;62001;53.366;6.636;2023-02-28T00:42:04;8.37;;;1.90;;
52940;SDS011;62001;53.366;6.636;2023-02-28T00:44:31;6.30;;;2.00;;
52940;SDS011;62001;53.366;6.636;2023-02-28T00:46:57;11.27;;;2.63;;
52940;SDS011;62001;53.366;6.636;2023-02-28T00:49:24;9.33;;;2.10;;
52940;SDS011;62001;53.366;6.636;2023-02-28T00:51:51;10.47;;;2.40;;
52940;SDS011;62001;53.366;6.636;2023-02-28T00:54:18;10.20;;;2.47;;
52940;SDS011;62001;53.366;6.636;2023-02-28T00:56:44;10.10;;;2.37;;
52940;SDS011;62001;53.366;6.636;2023-02-28T00:59:11;9.83;;;2.40;;
52940;SDS011;62001;53.366;6.636;2023-02-28T01:01:38;6.67;;;2.20;;
52940;SDS011;62001;53.366;6.636;2023-02-28T01:04:03;8.27;;;2.20;;
52940;SDS011;62001;53.366;6.636;2023-02-28T01:06:30;9.57;;;2.30;;
52940;SDS011;62001;53.366;6.636;2023-02-28T01:08:56;7.43;;;2.33;;
52940;SDS011;62001;53.366;6.636;2023-02-28T01:11:22;13.53;;;2.37;;
52940;SDS011;62001;53.366;6.636;2023-02-28T01:13:48;11.40;;;2.60;;
52940;SDS011;62001;53.366;6.636;2023-02-28T01:16:14;10.13;;;2.40;;
52940;SDS011;62001;53.366;6.636;2023-02-28T01:18:40;9.13;;;2.30;;
52940;SDS011;62001;53.366;6.636;2023-02-28T01:21:07;7.00;;;2.17;;
52940;SDS011;62001;53.366;6.636;2023-02-28T01:23:37;9.67;;;2.20;;
52940;SDS011;62001;53.366;6.636;2023-02-28T01:26:06;6.87;;;1.97;;
52940;SDS011;62001;53.366;6.636;2023-02-28T01:28:33;11.50;;;2.42;;
52940;SDS011;62001;53.366;6.636;2023-02-28T01:31:00;9.03;;;2.17;;
52940;SDS011;62001;53.366;6.636;2023-02-28T01:33:26;7.63;;;1.87;;
52940;SDS011;62001;53.366;6.636;2023-02-28T01:35:59;7.70;;;1.97;;
52940;SDS011;62001;53.366;6.636;2023-02-28T01:38:32;10.88;;;2.28;;
52940;SDS011;62001;53.366;6.636;2023-02-28T01:40:59;13.90;;;2.20;;
52940;SDS011;62001;53.366;6.636;2023-02-28T01:43:29;10.57;;;2.13;;
52940;SDS011;62001;53.366;6.636;2023-02-28T01:45:57;8.63;;;1.83;;
52940;SDS011;62001;53.366;6.636;2023-02-28T01:48:31;8.43;;;1.87;;
52940;SDS011;62001;53.366;6.636;2023-02-28T01:51:01;7.40;;;2.10;;
52940;SDS011;62001;53.366;6.636;2023-02-28T01:53:36;9.63;;;1.80;;
52940;SDS011;62001;53.366;6.636;2023-02-28T01:56:06;9.97;;;2.33;;
52940;SDS011;62001;53.366;6.636;2023-02-28T01:58:33;10.03;;;2.10;;
52940;SDS011;62001;53.366;6.636;2023-02-28T02:01:01;13.13;;;2.23;;
52940;SDS011;62001;53.366;6.636;2023-02-28T02:03:28;12.73;;;2.10;;
52940;SDS011;62001;53.366;6.636;2023-02-28T02:05:55;9.30;;;2.03;;
52940;SDS011;62001;53.366;6.636;2023-02-28T02:08:23;10.87;;;2.20;;
52940;SDS011;62001;53.366;6.636;2023-02-28T02:10:52;9.70;;;2.20;;
52940;SDS011;62001;53.366;6.636;2023-02-28T02:13:45;13.30;;;1.90;;
52940;SDS011;62001;53.366;6.636;2023-02-28T02:16:27;12.00;;;2.10;;
52940;SDS011;62001;53.366;6.636;2023-02-28T02:22:12;11.53;;;2.17;;
52940;SDS011;62001;53.366;6.636;2023-02-28T02:38:53;7.65;;;1.63;;
52940;SDS011;62001;53.366;6.636;2023-02-28T02:41:54;9.13;;;1.83;;
52940;SDS011;62001;53.366;6.636;2023-02-28T02:44:31;9.03;;;1.73;;
52940;SDS011;62001;53.366;6.636;2023-02-28T02:47:12;8.27;;;1.60;;
52940;SDS011;62001;53.366;6.636;2023-02-28T02:49:42;9.32;;;1.45;;
52940;SDS011;62001;53.366;6.636;2023-02-28T02:52:18;8.33;;;1.77;;
52940;SDS011;62001;53.366;6.636;2023-02-28T02:54:47;13.90;;;1.65;;
52940;SDS011;62001;53.366;6.636;2023-02-28T03:00:07;8.20;;;1.33;;
52940;SDS011;62001;53.366;6.636;2023-02-28T03:02:36;10.27;;;1.60;;
52940;SDS011;62001;53.366;6.636;2023-02-28T03:05:05;6.70;;;1.63;;
52940;SDS011;62001;53.366;6.636;2023-02-28T03:07:47;10.27;;;1.70;;
52940;SDS011;62001;53.366;6.636;2023-02-28T03:10:26;7.93;;;1.63;;
52940;SDS011;62001;53.366;6.636;2023-02-28T03:13:03;7.67;;;1.77;;
52940;SDS011;62001;53.366;6.636;2023-02-28T03:15:48;17.23;;;2.00;;
52940;SDS011;62001;53.366;6.636;2023-02-28T03:21:21;7.17;;;1.53;;
52940;SDS011;62001;53.366;6.636;2023-02-28T03:26:52;11.87;;;1.60;;
52940;SDS011;62001;53.366;6.636;2023-02-28T03:29:32;6.53;;;1.40;;
52940;SDS011;62001;53.366;6.636;2023-02-28T03:32:11;12.17;;;1.97;;
52940;SDS011;62001;53.366;6.636;2023-02-28T03:34:45;11.67;;;2.00;;
52940;SDS011;62001;53.366;6.636;2023-02-28T03:37:25;11.47;;;1.73;;
52940;SDS011;62001;53.366;6.636;2023-02-28T03:40:01;7.37;;;1.60;;
52940;SDS011;62001;53.366;6.636;2023-02-28T03:42:40;9.50;;;1.70;;
52940;SDS011;62001;53.366;6.636;2023-02-28T03:45:18;18.27;;;2.28;;
52940;SDS011;62001;53.366;6.636;2023-02-28T03:47:57;8.53;;;1.80;;
52940;SDS011;62001;53.366;6.636;2023-02-28T03:53:09;9.23;;;1.97;;
52940;SDS011;62001;53.366;6.636;2023-02-28T03:55:42;5.63;;;1.50;;
52940;SDS011;62001;53.366;6.636;2023-02-28T04:01:15;10.63;;;1.77;;
52940;SDS011;62001;53.366;6.636;2023-02-28T04:04:00;6.10;;;1.57;;
52940;SDS011;62001;53.366;6.636;2023-02-28T04:06:27;7.00;;;1.70;;
52940;SDS011;62001;53.366;6.636;2023-02-28T04:08:55;8.07;;;2.00;;
52940;SDS011;62001;53.366;6.636;2023-02-28T04:11:23;11.10;;;2.73;;
52940;SDS011;62001;53.366;6.636;2023-02-28T04:13:54;7.27;;;3.30;;
52940;SDS011;62001;53.366;6.636;2023-02-28T04:16:20;9.30;;;4.00;;
52940;SDS011;62001;53.366;6.636;2023-02-28T04:18:46;10.90;;;6.33;;
52940;SDS011;62001;53.366;6.636;2023-02-28T04:21:12;7.67;;;5.93;;
52940;SDS011;62001;53.366;6.636;2023-02-28T04:23:38;10.90;;;7.10;;
52940;SDS011;62001;53.366;6.636;2023-02-28T04:26:04;12.00;;;9.00;;
52940;SDS011;62001;53.366;6.636;2023-02-28T04:28:31;14.27;;;10.07;;
52940;SDS011;62001;53.366;6.636;2023-02-28T04:31:02;15.97;;;10.93;;
52940;SDS011;62001;53.366;6.636;2023-02-28T04:33:29;16.93;;;12.37;;
52940;SDS011;62001;53.366;6.636;2023-02-28T04:36:03;19.23;;;12.67;;
52940;SDS011;62001;53.366;6.636;2023-02-28T04:38:37;18.70;;;12.13;;
52940;SDS011;62001;53.366;6.636;2023-02-28T04:41:04;18.30;;;11.57;;
52940;SDS011;62001;53.366;6.636;2023-02-28T04:43:30;18.77;;;12.73;;
52940;SDS011;62001;53.366;6.636;2023-02-28T04:45:57;18.10;;;12.43;;
52940;SDS011;62001;53.366;6.636;2023-02-28T04:48:27;20.63;;;12.27;;
52940;SDS011;62001;53.366;6.636;2023-02-28T04:50:54;17.97;;;11.47;;
52940;SDS011;62001;53.366;6.636;2023-02-28T04:53:20;18.43;;;12.30;;
52940;SDS011;62001;53.366;6.636;2023-02-28T04:55:46;17.70;;;12.30;;
52940;SDS011;62001;53.366;6.636;2023-02-28T04:58:13;17.03;;;11.73;;
52940;SDS011;62001;53.366;6.636;2023-02-28T05:00:39;19.37;;;11.83;;
52940;SDS011;62001;53.366;6.636;2023-02-28T05:03:05;17.37;;;11.33;;
52940;SDS011;62001;53.366;6.636;2023-02-28T05:05:31;16.13;;;11.47;;
52940;SDS011;62001;53.366;6.636;2023-02-28T05:07:57;15.50;;;10.43;;
52940;SDS011;62001;53.366;6.636;2023-02-28T05:10:22;15.87;;;10.10;;
52940;SDS011;62001;53.366;6.636;2023-02-28T05:12:49;14.50;;;10.33;;
52940;SDS011;62001;53.366;6.636;2023-02-28T05:15:15;14.37;;;9.80;;
52940;SDS011;62001;53.366;6.636;2023-02-28T05:17:42;12.73;;;9.73;;
52940;SDS011;62001;53.366;6.636;2023-02-28T05:20:08;13.37;;;9.30;;
52940;SDS011;62001;53.366;6.636;2023-02-28T05:22:38;14.63;;;10.00;;
52940;SDS011;62001;53.366;6.636;2023-02-28T05:25:06;14.03;;;10.27;;
52940;SDS011;62001;53.366;6.636;2023-02-28T05:27:32;11.37;;;9.03;;
52940;SDS011;62001;53.366;6.636;2023-02-28T05:29:58;13.37;;;8.10;;
52940;SDS011;62001;53.366;6.636;2023-02-28T05:32:24;12.77;;;8.93;;
52940;SDS011;62001;53.366;6.636;2023-02-28T05:34:50;13.53;;;8.30;;
52940;SDS011;62001;53.366;6.636;2023-02-28T05:37:16;13.30;;;8.97;;
52940;SDS011;62001;53.366;6.636;2023-02-28T05:39:43;12.90;;;8.63;;
52940;SDS011;62001;53.366;6.636;2023-02-28T05:42:09;11.30;;;8.37;;
52940;SDS011;62001;53.366;6.636;2023-02-28T05:44:35;10.73;;;8.37;;
52940;SDS011;62001;53.366;6.636;2023-02-28T05:47:01;11.33;;;8.30;;
52940;SDS011;62001;53.366;6.636;2023-02-28T05:49:27;13.43;;;9.00;;
52940;SDS011;62001;53.366;6.636;2023-02-28T05:51:53;11.30;;;9.13;;
52940;SDS011;62001;53.366;6.636;2023-02-28T05:54:19;13.67;;;8.30;;
52940;SDS011;62001;53.366;6.636;2023-02-28T05:56:45;12.07;;;8.17;;
52940;SDS011;62001;53.366;6.636;2023-02-28T05:59:11;11.00;;;7.67;;
52940;SDS011;62001;53.366;6.636;2023-02-28T06:01:39;11.50;;;8.67;;
52940;SDS011;62001;53.366;6.636;2023-02-28T06:04:07;11.87;;;7.70;;
52940;SDS011;62001;53.366;6.636;2023-02-28T06:06:35;10.53;;;7.97;;
52940;SDS011;62001;53.366;6.636;2023-02-28T06:09:02;12.67;;;7.90;;
52940;SDS011;62001;53.366;6.636;2023-02-28T06:11:30;12.23;;;8.47;;
52940;SDS011;62001;53.366;6.636;2023-02-28T06:13:56;11.30;;;8.50;;
52940;SDS011;62001;53.366;6.636;2023-02-28T06:16:25;11.10;;;7.97;;
52940;SDS011;62001;53.366;6.636;2023-02-28T06:18:51;12.13;;;8.63;;
52940;SDS011;62001;53.366;6.636;2023-02-28T06:21:18;12.07;;;8.33;;
52940;SDS011;62001;53.366;6.636;2023-02-28T06:23:44;11.23;;;8.57;;
52940;SDS011;62001;53.366;6.636;2023-02-28T06:26:10;11.90;;;7.80;;
52940;SDS011;62001;53.366;6.636;2023-02-28T06:28:36;11.80;;;8.47;;
52940;SDS011;62001;53.366;6.636;2023-02-28T06:31:12;10.93;;;8.10;;
52940;SDS011;62001;53.366;6.636;2023-02-28T06:33:40;10.87;;;8.30;;
52940;SDS011;62001;53.366;6.636;2023-02-28T06:36:08;11.60;;;8.40;;
52940;SDS011;62001;53.366;6.636;2023-02-28T06:38:35;11.93;;;8.50;;
52940;SDS011;62001;53.366;6.636;2023-02-28T06:41:02;11.70;;;8.17;;
52940;SDS011;62001;53.366;6.636;2023-02-28T06:43:29;13.80;;;8.80;;
52940;SDS011;62001;53.366;6.636;2023-02-28T06:45:57;14.47;;;9.43;;
52940;SDS011;62001;53.366;6.636;2023-02-28T06:48:25;15.07;;;9.67;;
52940;SDS011;62001;53.366;6.636;2023-02-28T06:50:51;16.17;;;9.80;;
52940;SDS011;62001;53.366;6.636;2023-02-28T06:53:17;14.87;;;10.00;;
52940;SDS011;62001;53.366;6.636;2023-02-28T06:55:43;14.37;;;9.23;;
52940;SDS011;62001;53.366;6.636;2023-02-28T06:58:09;14.57;;;10.83;;
52940;SDS011;62001;53.366;6.636;2023-02-28T07:00:43;17.47;;;11.60;;
52940;SDS011;62001;53.366;6.636;2023-02-28T07:03:10;15.93;;;10.97;;
52940;SDS011;62001;53.366;6.636;2023-02-28T07:05:38;15.17;;;11.27;;
52940;SDS011;62001;53.366;6.636;2023-02-28T07:08:05;19.10;;;12.30;;
52940;SDS011;62001;53.366;6.636;2023-02-28T07:10:33;18.93;;;12.23;;
52940;SDS011;62001;53.366;6.636;2023-02-28T07:13:03;20.13;;;12.70;;
52940;SDS011;62001;53.366;6.636;2023-02-28T07:15:29;22.73;;;13.97;;
52940;SDS011;62001;53.366;6.636;2023-02-28T07:17:55;22.50;;;14.30;;
52940;SDS011;62001;53.366;6.636;2023-02-28T07:20:22;24.10;;;14.60;;
52940;SDS011;62001;53.366;6.636;2023-02-28T07:22:48;21.60;;;14.67;;
52940;SDS011;62001;53.366;6.636;2023-02-28T07:25:20;21.83;;;14.53;;
52940;SDS011;62001;53.366;6.636;2023-02-28T07:27:53;22.50;;;14.53;;
52940;SDS011;62001;53.366;6.636;2023-02-28T07:30:20;23.57;;;15.43;;
52940;SDS011;62001;53.366;6.636;2023-02-28T07:32:46;21.30;;;15.07;;
52940;SDS011;62001;53.366;6.636;2023-02-28T07:35:12;23.33;;;15.50;;
52940;SDS011;62001;53.366;6.636;2023-02-28T07:37:40;22.30;;;15.00;;
52940;SDS011;62001;53.366;6.636;2023-02-28T07:40:07;23.83;;;15.30;;
52940;SDS011;62001;53.366;6.636;2023-02-28T07:42:39;23.70;;;14.87;;
52940;SDS011;62001;53.366;6.636;2023-02-28T07:45:06;22.63;;;14.10;;
52940;SDS011;62001;53.366;6.636;2023-02-28T07:47:33;20.70;;;14.87;;
52940;SDS011;62001;53.366;6.636;2023-02-28T07:49:59;24.67;;;16.10;;
52940;SDS011;62001;53.366;6.636;2023-02-28T07:52:25;21.53;;;15.63;;
52940;SDS011;62001;53.366;6.636;2023-02-28T07:54:51;21.40;;;15.57;;
52940;SDS011;62001;53.366;6.636;2023-02-28T07:57:17;23.40;;;16.27;;
52940;SDS011;62001;53.366;6.636;2023-02-28T07:59:43;22.23;;;15.13;;
52940;SDS011;62001;53.366;6.636;2023-02-28T08:02:16;21.70;;;15.70;;
52940;SDS011;62001;53.366;6.636;2023-02-28T08:04:43;21.83;;;13.67;;
52940;SDS011;62001;53.366;6.636;2023-02-28T08:07:09;20.70;;;14.27;;
52940;SDS011;62001;53.366;6.636;2023-02-28T08:09:41;19.50;;;13.77;;
52940;SDS011;62001;53.366;6.636;2023-02-28T08:12:07;21.50;;;13.93;;
52940;SDS011;62001;53.366;6.636;2023-02-28T08:14:34;23.83;;;14.50;;
52940;SDS011;62001;53.366;6.636;2023-02-28T08:17:00;19.10;;;13.53;;
52940;SDS011;62001;53.366;6.636;2023-02-28T08:19:26;16.53;;;12.63;;
52940;SDS011;62001;53.366;6.636;2023-02-28T08:21:52;20.43;;;14.70;;
52940;SDS011;62001;53.366;6.636;2023-02-28T08:24:18;19.63;;;14.00;;
52940;SDS011;62001;53.366;6.636;2023-02-28T08:26:43;20.60;;;14.30;;
52940;SDS011;62001;53.366;6.636;2023-02-28T08:29:09;19.63;;;14.37;;
52940;SDS011;62001;53.366;6.636;2023-02-28T08:31:35;18.93;;;13.73;;
52940;SDS011;62001;53.366;6.636;2023-02-28T08:34:05;20.47;;;13.67;;
52940;SDS011;62001;53.366;6.636;2023-02-28T08:36:31;19.55;;;13.50;;
52940;SDS011;62001;53.366;6.636;2023-02-28T08:38:57;19.53;;;12.83;;
52940;SDS011;62001;53.366;6.636;2023-02-28T08:41:24;19.87;;;12.60;;
52940;SDS011;62001;53.366;6.636;2023-02-28T08:43:51;16.10;;;12.60;;
52940;SDS011;62001;53.366;6.636;2023-02-28T08:46:19;18.87;;;12.30;;
52940;SDS011;62001;53.366;6.636;2023-02-28T08:48:45;17.70;;;12.13;;
52940;SDS011;62001;53.366;6.636;2023-02-28T08:51:12;16.67;;;12.30;;
52940;SDS011;62001;53.366;6.636;2023-02-28T08:53:41;16.10;;;12.70;;
52940;SDS011;62001;53.366;6.636;2023-02-28T08:56:11;16.67;;;11.67;;
52940;SDS011;62001;53.366;6.636;2023-02-28T08:58:38;17.57;;;11.20;;
52940;SDS011;62001;53.366;6.636;2023-02-28T09:01:12;16.13;;;11.73;;
52940;SDS011;62001;53.366;6.636;2023-02-28T09:03:43;14.80;;;10.57;;
52940;SDS011;62001;53.366;6.636;2023-02-28T09:06:11;13.20;;;10.03;;
52940;SDS011;62001;53.366;6.636;2023-02-28T09:08:37;14.30;;;10.30;;
52940;SDS011;62001;53.366;6.636;2023-02-28T09:11:03;12.23;;;9.23;;
52940;SDS011;62001;53.366;6.636;2023-02-28T09:13:30;11.77;;;8.90;;
52940;SDS011;62001;53.366;6.636;2023-02-28T09:15:57;11.70;;;9.50;;
52940;SDS011;62001;53.366;6.636;2023-02-28T09:18:25;12.83;;;9.40;;
52940;SDS011;62001;53.366;6.636;2023-02-28T09:20:51;11.43;;;8.90;;
52940;SDS011;62001;53.366;6.636;2023-02-28T09:23:17;13.37;;;8.63;;
52940;SDS011;62001;53.366;6.636;2023-02-28T09:25:47;10.87;;;8.33;;
52940;SDS011;62001;53.366;6.636;2023-02-28T09:28:15;13.43;;;8.85;;
52940;SDS011;62001;53.366;6.636;2023-02-28T09:30:42;13.33;;;8.53;;
52940;SDS011;62001;53.366;6.636;2023-02-28T09:33:10;12.10;;;8.67;;
52940;SDS011;62001;53.366;6.636;2023-02-28T09:35:36;9.73;;;7.47;;
52940;SDS011;62001;53.366;6.636;2023-02-28T09:38:02;15.37;;;8.93;;
52940;SDS011;62001;53.366;6.636;2023-02-28T09:40:28;14.32;;;8.90;;
52940;SDS011;62001;53.366;6.636;2023-02-28T09:42:55;13.87;;;9.17;;
52940;SDS011;62001;53.366;6.636;2023-02-28T09:45:30;12.77;;;8.93;;
52940;SDS011;62001;53.366;6.636;2023-02-28T09:48:03;12.43;;;9.23;;
52940;SDS011;62001;53.366;6.636;2023-02-28T09:50:38;16.13;;;9.52;;
52940;SDS011;62001;53.366;6.636;2023-02-28T09:53:20;13.70;;;8.68;;
52940;SDS011;62001;53.366;6.636;2023-02-28T09:55:53;13.65;;;9.38;;
52940;SDS011;62001;53.366;6.636;2023-02-28T09:59:07;13.15;;;9.80;;
52940;SDS011;62001;53.366;6.636;2023-02-28T10:06:50;10.68;;;8.27;;
52940;SDS011;62001;53.366;6.636;2023-02-28T10:09:19;12.88;;;8.43;;
52940;SDS011;62001;53.366;6.636;2023-02-28T10:11:52;14.23;;;9.25;;
52940;SDS011;62001;53.366;6.636;2023-02-28T10:22:20;12.48;;;8.65;;
52940;SDS011;62001;53.366;6.636;2023-02-28T10:24:48;11.02;;;8.00;;
52940;SDS011;62001;53.366;6.636;2023-02-28T10:29:48;13.15;;;9.20;;
52940;SDS011;62001;53.366;6.636;2023-02-28T10:32:17;14.82;;;8.80;;
52940;SDS011;62001;53.366;6.636;2023-02-28T10:34:52;10.98;;;8.68;;
52940;SDS011;62001;53.366;6.636;2023-02-28T10:37:31;16.13;;;9.63;;
52940;SDS011;62001;53.366;6.636;2023-02-28T10:40:03;10.98;;;8.65;;
52940;SDS011;62001;53.366;6.636;2023-02-28T10:45:21;12.25;;;7.90;;
52940;SDS011;62001;53.366;6.636;2023-02-28T10:47:49;13.00;;;8.40;;
52940;SDS011;62001;53.366;6.636;2023-02-28T10:53:07;11.00;;;7.68;;
52940;SDS011;62001;53.366;6.636;2023-02-28T11:01:38;10.20;;;7.13;;
52940;SDS011;62001;53.366;6.636;2023-02-28T11:07:09;11.57;;;7.70;;
52940;SDS011;62001;53.366;6.636;2023-02-28T11:09:45;11.43;;;7.70;;
52940;SDS011;62001;53.366;6.636;2023-02-28T11:12:22;10.85;;;7.75;;
52940;SDS011;62001;53.366;6.636;2023-02-28T11:14:55;10.93;;;7.90;;
52940;SDS011;62001;53.366;6.636;2023-02-28T11:17:27;9.40;;;7.20;;
52940;SDS011;62001;53.366;6.636;2023-02-28T11:19:57;11.23;;;7.68;;
52940;SDS011;62001;53.366;6.636;2023-02-28T11:22:29;11.15;;;7.63;;
52940;SDS011;62001;53.366;6.636;2023-02-28T11:24:59;12.02;;;7.53;;
52940;SDS011;62001;53.366;6.636;2023-02-28T11:29:59;8.73;;;7.30;;
52940;SDS011;62001;53.366;6.636;2023-02-28T11:32:26;11.68;;;7.85;;
52940;SDS011;62001;53.366;6.636;2023-02-28T11:35:10;11.63;;;7.38;;
52940;SDS011;62001;53.366;6.636;2023-02-28T11:37:42;11.05;;;8.15;;
52940;SDS011;62001;53.366;6.636;2023-02-28T11:40:14;10.50;;;7.65;;
52940;SDS011;62001;53.366;6.636;2023-02-28T11:51:23;11.73;;;7.68;;
52940;SDS011;62001;53.366;6.636;2023-02-28T11:56:42;10.10;;;6.55;;
52940;SDS011;62001;53.366;6.636;2023-02-28T11:59:15;10.93;;;7.20;;
52940;SDS011;62001;53.366;6.636;2023-02-28T12:02:08;10.90;;;6.90;;
52940;SDS011;62001;53.366;6.636;2023-02-28T12:07:37;10.85;;;6.78;;
52940;SDS011;62001;53.366;6.636;2023-02-28T12:10:35;10.90;;;6.90;;
52940;SDS011;62001;53.366;6.636;2023-02-28T12:13:29;8.27;;;7.13;;
52940;SDS011;62001;53.366;6.636;2023-02-28T12:16:35;11.45;;;7.72;;
52940;SDS011;62001;53.366;6.636;2023-02-28T12:22:19;16.63;;;8.32;;
52940;SDS011;62001;53.366;6.636;2023-02-28T12:27:52;12.57;;;7.85;;
52940;SDS011;62001;53.366;6.636;2023-02-28T12:30:22;12.52;;;7.65;;
52940;SDS011;62001;53.366;6.636;2023-02-28T12:32:58;9.98;;;7.72;;
52940;SDS011;62001;53.366;6.636;2023-02-28T12:35:46;9.18;;;7.45;;
52940;SDS011;62001;53.366;6.636;2023-02-28T12:38:27;10.85;;;7.40;;
52940;SDS011;62001;53.366;6.636;2023-02-28T12:43:24;14.52;;;7.97;;
52940;SDS011;62001;53.366;6.636;2023-02-28T12:45:57;11.65;;;7.97;;
52940;SDS011;62001;53.366;6.636;2023-02-28T12:48:31;12.27;;;7.68;;
52940;SDS011;62001;53.366;6.636;2023-02-28T12:51:03;12.35;;;7.80;;
52940;SDS011;62001;53.366;6.636;2023-02-28T12:58:48;10.73;;;7.75;;
52940;SDS011;62001;53.366;6.636;2023-02-28T13:09:39;10.38;;;7.80;;
52940;SDS011;62001;53.366;6.636;2023-02-28T13:12:14;10.35;;;7.15;;
52940;SDS011;62001;53.366;6.636;2023-02-28T13:14:41;11.70;;;7.28;;
52940;SDS011;62001;53.366;6.636;2023-02-28T13:19:46;15.85;;;8.25;;
52940;SDS011;62001;53.366;6.636;2023-02-28T13:22:46;13.90;;;7.47;;
52940;SDS011;62001;53.366;6.636;2023-02-28T13:27:58;10.60;;;7.18;;
52940;SDS011;62001;53.366;6.636;2023-02-28T13:33:28;11.98;;;7.72;;
52940;SDS011;62001;53.366;6.636;2023-02-28T13:38:35;11.57;;;8.57;;
52940;SDS011;62001;53.366;6.636;2023-02-28T13:44:10;10.93;;;8.65;;
52940;SDS011;62001;53.366;6.636;2023-02-28T13:51:52;13.05;;;9.15;;
52940;SDS011;62001;53.366;6.636;2023-02-28T13:54:28;12.80;;;9.13;;
52940;SDS011;62001;53.366;6.636;2023-02-28T13:59:47;18.33;;;9.07;;
52940;SDS011;62001;53.366;6.636;2023-02-28T14:05:17;12.95;;;8.68;;
52940;SDS011;62001;53.366;6.636;2023-02-28T14:07:50;16.70;;;9.43;;
52940;SDS011;62001;53.366;6.636;2023-02-28T14:10:21;13.77;;;8.80;;
52940;SDS011;62001;53.366;6.636;2023-02-28T14:13:01;15.02;;;9.55;;
52940;SDS011;62001;53.366;6.636;2023-02-28T14:18:17;15.85;;;9.70;;
52940;SDS011;62001;53.366;6.636;2023-02-28T14:20:44;13.77;;;9.45;;
52940;SDS011;62001;53.366;6.636;2023-02-28T14:25:52;18.02;;;9.68;;
52940;SDS011;62001;53.366;6.636;2023-02-28T14:28:43;14.82;;;10.32;;
52940;SDS011;62001;53.366;6.636;2023-02-28T14:31:39;13.90;;;10.27;;
52940;SDS011;62001;53.366;6.636;2023-02-28T14:36:55;16.70;;;10.23;;
52940;SDS011;62001;53.366;6.636;2023-02-28T14:39:25;13.35;;;9.73;;
52940;SDS011;62001;53.366;6.636;2023-02-28T14:44:27;12.57;;;9.70;;
52940;SDS011;62001;53.366;6.636;2023-02-28T14:46:54;13.73;;;9.97;;
52940;SDS011;62001;53.366;6.636;2023-02-28T14:49:32;13.25;;;9.57;;
52940;SDS011;62001;53.366;6.636;2023-02-28T14:52:12;15.50;;;10.07;;
52940;SDS011;62001;53.366;6.636;2023-02-28T14:54:40;13.63;;;9.93;;
52940;SDS011;62001;53.366;6.636;2023-02-28T14:57:18;14.10;;;9.02;;
52940;SDS011;62001;53.366;6.636;2023-02-28T15:00:16;12.50;;;8.60;;
52940;SDS011;62001;53.366;6.636;2023-02-28T15:02:47;13.70;;;8.33;;
52940;SDS011;62001;53.366;6.636;2023-02-28T15:07:41;14.67;;;9.40;;
52940;SDS011;62001;53.366;6.636;2023-02-28T15:10:18;17.98;;;10.55;;
52940;SDS011;62001;53.366;6.636;2023-02-28T15:12:52;17.40;;;10.30;;
52940;SDS011;62001;53.366;6.636;2023-02-28T15:17:55;16.60;;;9.93;;
52940;SDS011;62001;53.366;6.636;2023-02-28T15:20:23;14.73;;;10.33;;
52940;SDS011;62001;53.366;6.636;2023-02-28T15:22:50;14.60;;;9.70;;
52940;SDS011;62001;53.366;6.636;2023-02-28T15:25:20;13.15;;;9.90;;
52940;SDS011;62001;53.366;6.636;2023-02-28T15:27:51;16.27;;;10.63;;
52940;SDS011;62001;53.366;6.636;2023-02-28T15:30:24;13.73;;;10.17;;
52940;SDS011;62001;53.366;6.636;2023-02-28T15:35:30;15.17;;;10.47;;
52940;SDS011;62001;53.366;6.636;2023-02-28T15:38:02;14.83;;;9.97;;
52940;SDS011;62001;53.366;6.636;2023-02-28T15:40:50;14.23;;;10.37;;
52940;SDS011;62001;53.366;6.636;2023-02-28T15:43:24;17.27;;;10.73;;
52940;SDS011;62001;53.366;6.636;2023-02-28T15:53:28;14.48;;;9.18;;
52940;SDS011;62001;53.366;6.636;2023-02-28T15:56:02;16.10;;;9.70;;
52940;SDS011;62001;53.366;6.636;2023-02-28T15:58:31;14.57;;;9.97;;
52940;SDS011;62001;53.366;6.636;2023-02-28T16:01:04;14.97;;;10.47;;
52940;SDS011;62001;53.366;6.636;2023-02-28T16:03:44;13.93;;;10.30;;
52940;SDS011;62001;53.366;6.636;2023-02-28T16:09:11;15.93;;;11.40;;
52940;SDS011;62001;53.366;6.636;2023-02-28T16:11:42;17.37;;;10.53;;
52940;SDS011;62001;53.366;6.636;2023-02-28T16:14:19;16.23;;;11.60;;
52940;SDS011;62001;53.366;6.636;2023-02-28T16:16:51;17.13;;;11.60;;
52940;SDS011;62001;53.366;6.636;2023-02-28T16:19:20;12.50;;;10.38;;
52940;SDS011;62001;53.366;6.636;2023-02-28T16:21:46;16.90;;;10.80;;
52940;SDS011;62001;53.366;6.636;2023-02-28T16:24:13;14.90;;;10.60;;
52940;SDS011;62001;53.366;6.636;2023-02-28T16:26:40;13.53;;;10.27;;
52940;SDS011;62001;53.366;6.636;2023-02-28T16:29:11;18.48;;;11.30;;
52940;SDS011;62001;53.366;6.636;2023-02-28T16:31:42;14.40;;;10.43;;
52940;SDS011;62001;53.366;6.636;2023-02-28T16:34:08;14.20;;;10.10;;
52940;SDS011;62001;53.366;6.636;2023-02-28T16:36:34;16.40;;;10.87;;
52940;SDS011;62001;53.366;6.636;2023-02-28T16:38:59;15.50;;;11.30;;
52940;SDS011;62001;53.366;6.636;2023-02-28T16:41:27;18.07;;;10.77;;
52940;SDS011;62001;53.366;6.636;2023-02-28T16:43:54;20.40;;;10.70;;
52940;SDS011;62001;53.366;6.636;2023-02-28T16:46:27;14.57;;;9.97;;
52940;SDS011;62001;53.366;6.636;2023-02-28T16:48:56;15.00;;;9.97;;
52940;SDS011;62001;53.366;6.636;2023-02-28T16:51:22;17.20;;;10.57;;
52940;SDS011;62001;53.366;6.636;2023-02-28T16:53:48;17.00;;;10.80;;
52940;SDS011;62001;53.366;6.636;2023-02-28T16:56:18;15.80;;;10.27;;
52940;SDS011;62001;53.366;6.636;2023-02-28T16:58:46;17.83;;;10.50;;
52940;SDS011;62001;53.366;6.636;2023-02-28T17:01:13;16.33;;;10.50;;
52940;SDS011;62001;53.366;6.636;2023-02-28T17:03:40;15.03;;;10.93;;
52940;SDS011;62001;53.366;6.636;2023-02-28T17:06:13;16.73;;;11.03;;
52940;SDS011;62001;53.366;6.636;2023-02-28T17:08:49;16.83;;;11.27;;
52940;SDS011;62001;53.366;6.636;2023-02-28T17:11:16;19.20;;;10.70;;
52940;SDS011;62001;53.366;6.636;2023-02-28T17:13:42;16.73;;;11.20;;
52940;SDS011;62001;53.366;6.636;2023-02-28T17:16:11;16.13;;;10.63;;
52940;SDS011;62001;53.366;6.636;2023-02-28T17:18:46;15.37;;;10.43;;
52940;SDS011;62001;53.366;6.636;2023-02-28T17:21:13;14.93;;;11.00;;
52940;SDS011;62001;53.366;6.636;2023-02-28T17:23:40;15.50;;;10.83;;